Rice River, Minnesota
Current Conditions -  °F | °C
As of 9:27 PM on Sunday 21 Dec 2014 (Local Time) from KHZX Reporting Station
Overcast Overcast  
Wind Chill: 27°   Ceiling: 300
Heat Index: 34°   Visibility: 1.2mi
Dew Point: 34°   Wind: 8mph
Humidity: 100%   Direction: 160°SSE
Pressure: 29.69"   Gusts: NA
Location:  46.7232°N, 93.3159°W
Report Text: KHZX 220327Z AUTO 16007KT 1 1/4SM OVC003 01/01 A2969 RMK AO2
Loading
Personal Weather Stations






























Interactive Weather Map New forecast layout! Learn more

10-Day Weather Forecast

Advertisements
Track Severe Weather on mobile